LIRP/PSA METAR and TAF weather

Enter ICAO airport designator
Station Type Date Time Source
LIRP METAR 2021/05/14 13:15 UTC NOAA

LIRP 141315Z 20008KT 9999 -RA FEW030 SCT040 BKN070 15/12 Q1009 NOSIG


Station Type Date Time Source
LIRP Decoded METAR 2021/05/14 13:15 UTC NOAA

Pisa / S. Giusto, Italy (LIRP) 43-41N 010-23E 6M
May 14, 2021 - 09:15 AM EDT / 2021.05.14 1315 UTC
Wind: from the SSW (200 degrees) at 9 MPH (8 KT):0
Visibility: greater than 7 mile(s):0
Sky conditions: mostly cloudy
Weather: light rain
Temperature: 59 F (15 C)
Dew Point: 53 F (12 C)
Relative Humidity: 82%
Pressure (altimeter): 29.80 in. Hg (1009 hPa)
ob: LIRP 141315Z 20008KT 9999 -RA FEW030 SCT040 BKN070 15/12 Q1009 NOSIG
cycle: 13

Station Type Date Time Source
LIRP TAF 2021/05/14 12:21 UTC NOAA

TAF LIRP 141100Z 1412/1512 20010KT 9999 FEW030 BKN060 PROB40
TEMPO 1412/1420 4000 TSRA FEW015CB BKN025
BECMG 1418/1420 07008KT

Example: see airport list